• Join FlightAware (Why Join?)
  • Login
  • US Flag 
10:07AM EDT


 

Airport Tracker/Info


-or-


 

Live Flight TrackerFlight Track Log ✈ EJA948 ✈ 09-May-2013 ✈ KTEB - KMVY

Flight Track Log - Related Links

Times and Time Zones

All times are in EDT time to prevent confusion due to time zone crossing. See the EJA948 flight status page for this flight to view local times or setup timezone preferences in your user account.

Time Position Orientation Groundspeed Altitude Reporting Facility
EDT Latitude Longitude Course Direction KTS MPH feet Rate Location/Type
07:49PM 40.8333 -74.0833 255° West 184 212 1,400  Level New York TRACON
07:50PM 40.8167 -74.1667 255° West 206 237 1,800 1,500 Climbing New York TRACON
07:51PM 40.8167 -74.2500 270° West 225 259 4,500 2,100 Climbing New York TRACON
07:52PM 40.8667 -74.3000 323° Northwest 267 307 6,000 780 Climbing New York TRACON
07:53PM 40.9333 -74.2667 21° North 269 310 6,100  Climbing New York TRACON
07:54PM 41.0000 -74.2167 30° Northeast 270 311 6,000 -60 Descending New York TRACON
07:55PM 41.0833 -74.1667 24° Northeast 278 320 6,000 480 Level New York TRACON
07:56PM 41.1000 -74.1000 72° East 287 330 7,000 1,800 Climbing New York TRACON
07:57PM 41.1333 -74.0000 66° East 296 341 9,500 1,500 Climbing New York TRACON
08:00PM 41.2133 -73.7425 67° East 337 388 12,000 900 Climbing Boston Center
08:01PM 41.1836 -73.6122 107° East 386 444 12,500 1,080 Climbing Boston Center
08:02PM 41.1475 -73.4489 106° East 409 471 14,200 1,620 Climbing Boston Center
08:03PM 41.1217 -73.2969 103° East 424 488 15,800 900 Climbing Boston Center
08:04PM 41.1706 -73.1542 66° East 397 457 16,000 600 Climbing Boston Center
08:05PM 41.2506 -73.0308 49° Northeast 401 461 17,000 420 Climbing Boston Center
08:06PM 41.2908 -72.8517 73° East 423 487 17,000  Level Boston Center
08:07PM 41.2975 -72.7025 87° East 429 494 17,000  Level Boston Center
08:08PM 41.3083 -72.5258 85° East 429 494 17,000  Level Boston Center
08:09PM 41.3144 -72.3847 87° East 435 501 17,000 -360 Level Boston Center
08:09PM 41.3208 -72.2742 86° East 439 505 16,500 -1,260 Descending Boston Center
08:10PM 41.3247 -72.2133 85° East 423 487 15,800 -1,740 Descending Boston Center
08:11PM 41.3328 -72.0558 86° East 432 497 14,100 -1,740 Descending Boston Center
08:12PM 41.3403 -71.8872 87° East 427 491 12,300 -1,440 Descending Boston Center
08:13PM 41.3478 -71.7378 86° East 411 473 11,200 -1,020 Descending Boston Center
08:14PM 41.3531 -71.5883 87° East 410 472 10,300 -600 Descending Boston Center
08:15PM 41.3603 -71.4389 86° East 409 471 10,000 -240 Descending Boston Center
08:16PM 41.3669 -71.2867 87° East 366 421 9,900 -480 Descending Boston Center
08:17PM 41.3722 -71.1869 86° East 316 364 9,000 -1,140 Descending Boston Center
08:18PM 41.3772 -71.0681 87° East 290 334 7,700 -1,320 Descending Boston Center
08:19PM 41.3906 -70.9792 79° East 278 320 6,400 -1,320 Descending Boston Center
08:20PM 41.4164 -70.8733 72° East 268 308 5,100 -1,080 Descending Boston Center
08:21PM 41.4361 -70.7981 71° East 254 292 4,300 -1,140 Descending Boston Center
08:22PM 41.4575 -70.7061 73° East 242 278 2,900 -1,320 Descending Boston Center
08:23PM 41.4875 -70.6278 63° Northeast 235 270 1,700 -660 Descending Boston Center
08:24PM 41.5219 -70.5658 53° Northeast 221 254 1,600 -60 Descending Boston Center
08:25PM 41.5294 -70.5044 81° East 208 239 1,600  Level Boston Center
08:26PM 41.4714 -70.5228 193° South 100 115 1,700 -180 Climbing Boston Center
08:27PM 41.4447 -70.5542 221° Southwest 130 150 1,300 -540 Descending Boston Center
08:28PM 41.4203 -70.5825 221° Southwest 132 152 700 -360 Descending Boston Center
08:29PM 41.3956 -70.6111 221° Southwest 127 146 600 780 Descending Boston Center
08:30PM 41.3519 -70.6122 181° South 140 161 2,300 1,200 Climbing Boston Center
08:31PM 41.3319 -70.5381 110° East 175 201 3,000 300 Climbing Boston Center
08:32PM 41.3622 -70.4819 54° Northeast 176 203 3,000  Level Boston Center
08:33PM 41.4072 -70.4281 42° Northeast 188 216 3,000  Level Boston Center
08:34PM 41.4628 -70.3875 29° Northeast 201 231 3,000  Level Boston Center
08:35PM 41.5225 -70.3522 24° Northeast 214 246 3,000  Level Boston Center
08:36PM 41.5842 -70.3142 25° Northeast 228 262 3,000  Level Boston Center
08:37PM 41.6397 -70.2733 29° Northeast 233 268 3,000  Level Boston Center
08:38PM 41.6800 -70.2025 53° Northeast 228 262 3,000  Level Boston Center
08:39PM 41.7278 -70.1897 11° North 220 253 3,000  Level Boston Center
08:40PM 41.7125 -70.2597 254° West 86 99 3,000  Level Boston Center
08:41PM 41.6783 -70.3250 235° Southwest 149 171 3,000  Level Boston Center
08:42PM 41.6167 -70.3686 208° Southwest 187 215 3,000  Level Boston Center
08:43PM 41.5694 -70.4117 214° Southwest 199 229 3,000  Level Boston Center
08:44PM 41.5306 -70.4628 225° Southwest 199 229 3,000 -300 Level Boston Center
08:45PM 41.4856 -70.5086 217° Southwest 199 229 2,400 -720 Descending Boston Center
08:46PM 41.4569 -70.5400 219° Southwest 167 192 1,600 -720 Descending Boston Center
08:47PM 41.4283 -70.5714 219° Southwest 136 157 1,000 -540 Descending Boston Center
08:48PM 41.4058 -70.5969 220° Southwest 120 138 600 -420 Descending Boston Center